RYR36AM LBSF-LHBP
Flight info
| Callsign | RYR36AM |
|---|---|
| Flight time | 1h 4m |
| Altitude | 36000 |
| Route | OGOTA N133 LOMOS DCT PADGU DCT KEZAL |
| Aircraft | B738/M-SDE2E3FGHIRWXY/LB1 |
Departure
| Time | 2026-05-04 16:14 |
|---|---|
| Airport | Sofia Airport (LBSF) |
Arrival
| Time | 2026-05-04 17:19 |
|---|---|
| Airport | Budapest Liszt Ferenc International Airport (LHBP) |
| Time | Latitude | Longitude | Altitude | Speed | Heading |
|---|---|---|---|---|---|
| 2026-05-04 15:35 | 42.69029 | 23.41093 | 1752 ft | 0 kts | 161° |
| 2026-05-04 15:56 | 42.69028 | 23.41093 | 1752 ft | 1 kts | 161° |
| 2026-05-04 15:56 | 42.69011 | 23.41101 | 1747 ft | 5 kts | 161° |
| 2026-05-04 15:56 | 42.68974 | 23.41138 | 1750 ft | 8 kts | 112° |
| 2026-05-04 15:56 | 42.69003 | 23.41213 | 1750 ft | 11 kts | 45° |
| 2026-05-04 15:57 | 42.69080 | 23.41216 | 1750 ft | 13 kts | 341° |
| 2026-05-04 15:57 | 42.69179 | 23.41172 | 1745 ft | 16 kts | 341° |
| 2026-05-04 15:57 | 42.69284 | 23.41178 | 1748 ft | 16 kts | 38° |
| 2026-05-04 15:57 | 42.69292 | 23.41316 | 1744 ft | 15 kts | 95° |
| 2026-05-04 15:58 | 42.69283 | 23.41454 | 1752 ft | 14 kts | 92° |
| 2026-05-04 15:58 | 42.69219 | 23.41538 | 1749 ft | 14 kts | 162° |
| 2026-05-04 15:58 | 42.69130 | 23.41576 | 1748 ft | 13 kts | 161° |
| 2026-05-04 15:58 | 42.69079 | 23.41659 | 1752 ft | 13 kts | 78° |
| 2026-05-04 15:59 | 42.69104 | 23.41773 | 1751 ft | 12 kts | 73° |
| 2026-05-04 15:59 | 42.69129 | 23.41884 | 1747 ft | 12 kts | 73° |
| 2026-05-04 15:59 | 42.69154 | 23.41992 | 1744 ft | 12 kts | 73° |
| 2026-05-04 15:59 | 42.69178 | 23.42097 | 1745 ft | 11 kts | 72° |
| 2026-05-04 16:00 | 42.69201 | 23.42199 | 1751 ft | 11 kts | 72° |
| 2026-05-04 16:00 | 42.69222 | 23.42296 | 1746 ft | 9 kts | 74° |
| 2026-05-04 16:00 | 42.69246 | 23.42370 | 1748 ft | 9 kts | 55° |
| 2026-05-04 16:00 | 42.69261 | 23.42392 | 1745 ft | 0 kts | 43° |
| 2026-05-04 16:03 | 42.69270 | 23.42402 | 1747 ft | 3 kts | 37° |
| 2026-05-04 16:03 | 42.69300 | 23.42418 | 1752 ft | 6 kts | 12° |
| 2026-05-04 16:03 | 42.69355 | 23.42427 | 1749 ft | 9 kts | 6° |
| 2026-05-04 16:04 | 42.69411 | 23.42472 | 1750 ft | 11 kts | 72° |
| 2026-05-04 16:04 | 42.69401 | 23.42716 | 1752 ft | 15 kts | 94° |
| 2026-05-04 16:04 | 42.69392 | 23.42864 | 1745 ft | 17 kts | 95° |
| 2026-05-04 16:05 | 42.69382 | 23.43025 | 1746 ft | 17 kts | 95° |
| 2026-05-04 16:05 | 42.69373 | 23.43182 | 1752 ft | 16 kts | 95° |
| 2026-05-04 16:05 | 42.69355 | 23.43478 | 1752 ft | 15 kts | 94° |
| 2026-05-04 16:06 | 42.69347 | 23.43608 | 1747 ft | 12 kts | 95° |
| 2026-05-04 16:06 | 42.69334 | 23.43899 | 1748 ft | 10 kts | 76° |
| 2026-05-04 16:07 | 42.69393 | 23.43949 | 1751 ft | 4 kts | 5° |
| 2026-05-04 16:07 | 42.69398 | 23.43949 | 1750 ft | 0 kts | 4° |
| 2026-05-04 16:12 | 42.69442 | 23.43954 | 1744 ft | 6 kts | 4° |
| 2026-05-04 16:13 | 42.69514 | 23.43941 | 1749 ft | 3 kts | 305° |
| 2026-05-04 16:13 | 42.69522 | 23.43880 | 1748 ft | 7 kts | 276° |
| 2026-05-04 16:14 | 42.69597 | 23.42627 | 1750 ft | 134 kts | 274° |
| 2026-05-04 16:14 | 42.69761 | 23.39447 | 2639 ft | 178 kts | 275° |
| 2026-05-04 16:15 | 42.71498 | 23.35519 | 4851 ft | 182 kts | 348° |
| 2026-05-04 16:16 | 42.74149 | 23.34921 | 5737 ft | 216 kts | 357° |
| 2026-05-04 16:16 | 42.79091 | 23.34545 | 6923 ft | 257 kts | 358° |
| 2026-05-04 16:17 | 42.82748 | 23.34250 | 8443 ft | 264 kts | 359° |
| 2026-05-04 16:18 | 42.88335 | 23.33768 | 10619 ft | 285 kts | 359° |
| 2026-05-04 16:18 | 42.90397 | 23.33593 | 10788 ft | 309 kts | 359° |
| 2026-05-04 16:19 | 42.97154 | 23.32984 | 12732 ft | 332 kts | 359° |
| 2026-05-04 16:19 | 43.01836 | 23.32554 | 14123 ft | 342 kts | 359° |
| 2026-05-04 16:20 | 43.09044 | 23.31892 | 16198 ft | 351 kts | 359° |
| 2026-05-04 16:20 | 43.13974 | 23.31440 | 17573 ft | 357 kts | 359° |
| 2026-05-04 16:21 | 43.21517 | 23.30747 | 19394 ft | 367 kts | 358° |
| 2026-05-04 16:22 | 43.26620 | 23.30277 | 20493 ft | 374 kts | 358° |
| 2026-05-04 16:22 | 43.34490 | 23.29550 | 22131 ft | 382 kts | 358° |
| 2026-05-04 16:23 | 43.42554 | 23.28805 | 23639 ft | 392 kts | 358° |
| 2026-05-04 16:24 | 43.53580 | 23.27781 | 25287 ft | 403 kts | 358° |
| 2026-05-04 16:25 | 43.59208 | 23.27257 | 26097 ft | 407 kts | 358° |
| 2026-05-04 16:26 | 43.70662 | 23.26188 | 27614 ft | 417 kts | 358° |
| 2026-05-04 16:26 | 43.79422 | 23.25368 | 28159 ft | 425 kts | 358° |
| 2026-05-04 16:27 | 43.85237 | 23.23764 | 29037 ft | 429 kts | 342° |
| 2026-05-04 16:28 | 43.93428 | 23.18397 | 29965 ft | 438 kts | 336° |
| 2026-05-04 16:28 | 44.01627 | 23.12818 | 31134 ft | 434 kts | 337° |
| 2026-05-04 16:29 | 44.12415 | 23.05573 | 32135 ft | 435 kts | 337° |
| 2026-05-04 16:30 | 44.20467 | 23.00155 | 33594 ft | 421 kts | 338° |
| 2026-05-04 16:31 | 44.25712 | 22.96617 | 34306 ft | 418 kts | 338° |
| 2026-05-04 16:31 | 44.33585 | 22.91297 | 34940 ft | 419 kts | 338° |
| 2026-05-04 16:32 | 44.41446 | 22.85967 | 35578 ft | 420 kts | 337° |
| 2026-05-04 16:33 | 44.46695 | 22.82398 | 36040 ft | 419 kts | 337° |
| 2026-05-04 16:33 | 44.51974 | 22.78802 | 36035 ft | 423 kts | 337° |
| 2026-05-04 16:34 | 44.59853 | 22.73418 | 36026 ft | 416 kts | 338° |
| 2026-05-04 16:35 | 44.75456 | 22.62712 | 36027 ft | 408 kts | 338° |
| 2026-05-04 16:36 | 44.82696 | 22.56658 | 36045 ft | 404 kts | 329° |
| 2026-05-04 16:37 | 44.89615 | 22.49923 | 36052 ft | 402 kts | 329° |
| 2026-05-04 16:38 | 44.98842 | 22.41035 | 36063 ft | 401 kts | 330° |
| 2026-05-04 16:39 | 45.10428 | 22.29901 | 36076 ft | 405 kts | 330° |
| 2026-05-04 16:40 | 45.19732 | 22.20917 | 36085 ft | 407 kts | 329° |
| 2026-05-04 16:41 | 45.31389 | 22.09609 | 36089 ft | 405 kts | 329° |
| 2026-05-04 16:43 | 45.42921 | 21.98367 | 36082 ft | 400 kts | 329° |
| 2026-05-04 16:43 | 45.49840 | 21.91597 | 36086 ft | 403 kts | 329° |
| 2026-05-04 16:45 | 45.63669 | 21.78000 | 36070 ft | 402 kts | 328° |
| 2026-05-04 16:46 | 45.75166 | 21.66632 | 36078 ft | 402 kts | 328° |
| 2026-05-04 16:47 | 45.84367 | 21.57493 | 36082 ft | 404 kts | 328° |
| 2026-05-04 16:48 | 45.91411 | 21.50476 | 36089 ft | 418 kts | 328° |
| 2026-05-04 16:48 | 45.93813 | 21.48077 | 36084 ft | 422 kts | 328° |
| 2026-05-04 16:49 | 46.03426 | 21.38442 | 36067 ft | 420 kts | 328° |
| 2026-05-04 16:50 | 46.12987 | 21.28822 | 36072 ft | 418 kts | 328° |
| 2026-05-04 16:51 | 46.20091 | 21.21646 | 36055 ft | 407 kts | 328° |
| 2026-05-04 16:52 | 46.29235 | 21.12376 | 35430 ft | 397 kts | 328° |
| 2026-05-04 16:52 | 46.31481 | 21.10093 | 35179 ft | 393 kts | 328° |
| 2026-05-04 16:53 | 46.35923 | 21.05572 | 34667 ft | 387 kts | 328° |
| 2026-05-04 16:53 | 46.42143 | 20.98268 | 33410 ft | 385 kts | 319° |
| 2026-05-04 16:54 | 46.44021 | 20.95495 | 32947 ft | 384 kts | 319° |
| 2026-05-04 16:55 | 46.51474 | 20.84426 | 30418 ft | 399 kts | 319° |
| 2026-05-04 16:55 | 46.55390 | 20.78672 | 29361 ft | 398 kts | 319° |
| 2026-05-04 16:56 | 46.58622 | 20.73920 | 28684 ft | 400 kts | 319° |
| 2026-05-04 16:56 | 46.65115 | 20.64360 | 27325 ft | 394 kts | 319° |
| 2026-05-04 16:57 | 46.66383 | 20.62490 | 27059 ft | 393 kts | 319° |
| 2026-05-04 16:57 | 46.70197 | 20.56856 | 26271 ft | 388 kts | 319° |
| 2026-05-04 16:58 | 46.75869 | 20.48460 | 26002 ft | 383 kts | 319° |
| 2026-05-04 16:58 | 46.77721 | 20.45709 | 25646 ft | 379 kts | 319° |
| 2026-05-04 16:59 | 46.81425 | 20.40207 | 24589 ft | 381 kts | 319° |
| 2026-05-04 17:00 | 46.88787 | 20.29231 | 22818 ft | 374 kts | 319° |
| 2026-05-04 17:00 | 46.94188 | 20.21149 | 21512 ft | 367 kts | 319° |
| 2026-05-04 17:01 | 46.97731 | 20.15834 | 20672 ft | 363 kts | 319° |
| 2026-05-04 17:01 | 47.01233 | 20.10571 | 19852 ft | 358 kts | 319° |
| 2026-05-04 17:02 | 47.04699 | 20.05349 | 19009 ft | 357 kts | 319° |
| 2026-05-04 17:02 | 47.08134 | 20.00165 | 18280 ft | 351 kts | 319° |
| 2026-05-04 17:03 | 47.09830 | 19.97604 | 17874 ft | 349 kts | 319° |
| 2026-05-04 17:03 | 47.11515 | 19.95055 | 17486 ft | 346 kts | 318° |
| 2026-05-04 17:03 | 47.14837 | 19.90023 | 16774 ft | 340 kts | 318° |
| 2026-05-04 17:04 | 47.18101 | 19.85071 | 16096 ft | 340 kts | 318° |
| 2026-05-04 17:04 | 47.21401 | 19.80056 | 15398 ft | 342 kts | 317° |
| 2026-05-04 17:05 | 47.24722 | 19.74997 | 14705 ft | 345 kts | 317° |
| 2026-05-04 17:05 | 47.28049 | 19.69916 | 14002 ft | 342 kts | 317° |
| 2026-05-04 17:06 | 47.31330 | 19.64897 | 13218 ft | 338 kts | 316° |
| 2026-05-04 17:06 | 47.32952 | 19.62413 | 12849 ft | 336 kts | 316° |
| 2026-05-04 17:07 | 47.36147 | 19.57470 | 12198 ft | 329 kts | 315° |
| 2026-05-04 17:07 | 47.37173 | 19.55831 | 11988 ft | 328 kts | 315° |
| 2026-05-04 17:07 | 47.39226 | 19.52525 | 11544 ft | 325 kts | 315° |
| 2026-05-04 17:07 | 47.40751 | 19.50066 | 11233 ft | 324 kts | 314° |
| 2026-05-04 17:08 | 47.42266 | 19.47624 | 10905 ft | 322 kts | 314° |
| 2026-05-04 17:08 | 47.45288 | 19.42758 | 10205 ft | 321 kts | 314° |
| 2026-05-04 17:08 | 47.46782 | 19.40351 | 10036 ft | 313 kts | 314° |
| 2026-05-04 17:09 | 47.48255 | 19.37977 | 9665 ft | 314 kts | 314° |
| 2026-05-04 17:09 | 47.49721 | 19.35611 | 9316 ft | 311 kts | 314° |
| 2026-05-04 17:09 | 47.51181 | 19.33255 | 8975 ft | 310 kts | 314° |
| 2026-05-04 17:10 | 47.54066 | 19.28589 | 8381 ft | 305 kts | 314° |
| 2026-05-04 17:10 | 47.58316 | 19.21701 | 7436 ft | 299 kts | 313° |
| 2026-05-04 17:11 | 47.59715 | 19.19430 | 7152 ft | 298 kts | 313° |
| 2026-05-04 17:11 | 47.61109 | 19.17165 | 6839 ft | 297 kts | 313° |
| 2026-05-04 17:11 | 47.63877 | 19.12664 | 6036 ft | 289 kts | 312° |
| 2026-05-04 17:12 | 47.65160 | 19.10472 | 5876 ft | 275 kts | 302° |
| 2026-05-04 17:12 | 47.65613 | 19.05348 | 5657 ft | 247 kts | 250° |
| 2026-05-04 17:13 | 47.62502 | 18.99644 | 4937 ft | 233 kts | 220° |
| 2026-05-04 17:14 | 47.58578 | 18.99742 | 4355 ft | 215 kts | 134° |
| 2026-05-04 17:14 | 47.57574 | 19.01432 | 4064 ft | 220 kts | 132° |
| 2026-05-04 17:14 | 47.55564 | 19.04758 | 3488 ft | 213 kts | 133° |
| 2026-05-04 17:15 | 47.54575 | 19.06361 | 3205 ft | 208 kts | 134° |
| 2026-05-04 17:15 | 47.52704 | 19.09387 | 2679 ft | 191 kts | 134° |
| 2026-05-04 17:16 | 47.51000 | 19.12141 | 2212 ft | 175 kts | 134° |
| 2026-05-04 17:16 | 47.48747 | 19.15789 | 1573 ft | 154 kts | 134° |
| 2026-05-04 17:17 | 47.48025 | 19.16961 | 1352 ft | 155 kts | 134° |
| 2026-05-04 17:17 | 47.45852 | 19.20498 | 756 ft | 158 kts | 134° |
| 2026-05-04 17:18 | 47.45118 | 19.21687 | 576 ft | 155 kts | 135° |
| 2026-05-04 17:18 | 47.43882 | 19.23674 | 455 ft | 80 kts | 134° |
| 2026-05-04 17:19 | 47.43648 | 19.24384 | 456 ft | 26 kts | 110° |
| 2026-05-04 17:19 | 47.43471 | 19.24745 | 456 ft | 20 kts | 133° |
| 2026-05-04 17:20 | 47.43364 | 19.24919 | 456 ft | 11 kts | 131° |
| 2026-05-04 17:20 | 47.43266 | 19.25075 | 456 ft | 10 kts | 132° |
| 2026-05-04 17:20 | 47.43231 | 19.25179 | 456 ft | 13 kts | 92° |
| 2026-05-04 17:21 | 47.43370 | 19.25423 | 456 ft | 19 kts | 42° |
| 2026-05-04 17:21 | 47.43562 | 19.25680 | 456 ft | 18 kts | 42° |
| 2026-05-04 17:22 | 47.43651 | 19.25799 | 456 ft | 17 kts | 41° |
| 2026-05-04 17:22 | 47.43733 | 19.25921 | 456 ft | 16 kts | 68° |
| 2026-05-04 17:23 | 47.43660 | 19.26359 | 457 ft | 14 kts | 128° |
| 2026-05-04 17:23 | 47.43598 | 19.26459 | 457 ft | 11 kts | 133° |
| 2026-05-04 17:23 | 47.43541 | 19.26441 | 457 ft | 0 kts | 223° |